createdAt,value
2023-04-12T00:02:27.525Z,99.90
2023-04-12T00:04:58.042Z,99.90
2023-04-12T00:07:25.603Z,99.90
2023-04-12T00:09:52.861Z,99.90
2023-04-12T00:12:21.404Z,99.90
2023-04-12T00:14:48.806Z,99.90
2023-04-12T00:17:16.282Z,99.90
2023-04-12T00:19:44.927Z,99.90
2023-04-12T00:22:12.591Z,99.90
2023-04-12T00:24:41.115Z,99.90
2023-04-12T00:27:09.174Z,99.90
2023-04-12T00:29:36.725Z,99.90
2023-04-12T00:32:05.769Z,99.90
2023-04-12T00:34:33.086Z,99.90
2023-04-12T00:37:02.316Z,99.90
2023-04-12T00:39:30.240Z,99.90
2023-04-12T00:41:58.024Z,99.90
2023-04-12T00:44:25.420Z,99.90
2023-04-12T00:46:54.782Z,99.90
2023-04-12T00:49:22.263Z,99.90
2023-04-12T00:51:49.463Z,99.90
2023-04-12T00:54:18.387Z,99.90
2023-04-12T00:56:47.360Z,99.90
2023-04-12T00:59:14.692Z,99.90
2023-04-12T01:01:42.003Z,99.90
2023-04-12T01:04:09.564Z,99.90
2023-04-12T01:07:01.806Z,99.90
2023-04-12T01:10:08.582Z,99.90
2023-04-12T01:12:54.070Z,99.90
2023-04-12T01:15:24.602Z,99.90
2023-04-12T01:18:09.823Z,99.90
2023-04-12T01:20:54.773Z,99.90
2023-04-12T01:23:26.386Z,99.90
2023-04-12T01:26:08.908Z,99.90
2023-04-12T01:28:41.079Z,99.90
2023-04-12T01:31:09.576Z,99.90
2023-04-12T01:33:39.770Z,99.90
2023-04-12T01:36:12.457Z,99.90
2023-04-12T01:38:43.721Z,99.90
2023-04-12T01:41:12.774Z,99.90
2023-04-12T01:43:44.743Z,99.90
2023-04-12T01:46:17.377Z,99.90
2023-04-12T01:48:53.582Z,99.90
2023-04-12T01:51:44.811Z,99.90
2023-04-12T01:54:22.628Z,99.90
2023-04-12T01:56:55.895Z,99.90
2023-04-12T01:59:26.643Z,99.90
2023-04-12T02:01:53.987Z,99.90
2023-04-12T02:04:22.205Z,99.90
2023-04-12T02:06:49.483Z,99.90
2023-04-12T02:09:16.991Z,99.90
2023-04-12T02:11:48.745Z,99.90
2023-04-12T02:14:16.499Z,99.90
2023-04-12T02:16:48.426Z,99.90
2023-04-12T02:19:16.665Z,99.90
2023-04-12T02:21:45.268Z,99.90
2023-04-12T02:24:13.196Z,99.90
2023-04-12T02:26:40.446Z,99.90
2023-04-12T02:29:10.594Z,99.90
2023-04-12T02:31:39.233Z,99.90
2023-04-12T02:34:10.273Z,99.90
2023-04-12T02:36:40.680Z,99.90
2023-04-12T02:39:08.076Z,99.90
2023-04-12T02:41:36.795Z,99.90
2023-04-12T02:44:08.895Z,99.90
2023-04-12T02:46:37.905Z,99.90
2023-04-12T02:49:05.814Z,99.90
2023-04-12T02:51:38.652Z,99.90
2023-04-12T02:54:06.880Z,99.90
2023-04-12T02:56:51.703Z,99.90
2023-04-12T02:59:34.106Z,99.90
2023-04-12T03:02:11.331Z,99.90
2023-04-12T03:04:40.230Z,99.90
2023-04-12T03:07:13.881Z,99.90
2023-04-12T03:09:50.674Z,99.90
2023-04-12T03:12:20.519Z,99.90
2023-04-12T03:15:11.272Z,99.90
2023-04-12T03:17:38.927Z,99.90
2023-04-12T03:20:09.981Z,99.90
2023-04-12T03:22:40.550Z,99.90
2023-04-12T03:25:10.604Z,99.90
2023-04-12T03:27:42.460Z,99.90
2023-04-12T03:30:11.803Z,99.90
2023-04-12T03:32:42.039Z,99.90
2023-04-12T03:35:11.884Z,99.90
2023-04-12T03:37:42.775Z,99.90
2023-04-12T03:40:12.880Z,99.90
2023-04-12T03:42:44.645Z,99.90
2023-04-12T03:45:13.990Z,99.90
2023-04-12T03:47:45.383Z,99.90
2023-04-12T03:50:13.575Z,99.90
2023-04-12T03:52:46.975Z,99.90
2023-04-12T03:55:18.578Z,99.90
2023-04-12T03:57:48.940Z,99.90
2023-04-12T04:00:18.226Z,99.90
2023-04-12T04:02:47.456Z,99.90
2023-04-12T04:05:16.865Z,99.90
2023-04-12T04:07:46.008Z,99.90
2023-04-12T04:10:15.354Z,99.90
2023-04-12T04:12:44.058Z,99.90
2023-04-12T04:15:14.684Z,99.90
2023-04-12T04:17:43.129Z,99.90
2023-04-12T04:20:13.787Z,99.90
2023-04-12T04:22:44.983Z,99.90
2023-04-12T04:25:14.951Z,99.90
2023-04-12T04:27:47.767Z,99.90
2023-04-12T04:30:17.049Z,99.90
2023-04-12T04:32:46.406Z,99.90
2023-04-12T04:35:17.051Z,99.90
2023-04-12T04:38:02.025Z,99.90
2023-04-12T04:40:29.556Z,99.90
2023-04-12T04:42:58.043Z,99.90
2023-04-12T04:45:27.814Z,99.90
2023-04-12T04:47:56.246Z,99.90
2023-04-12T04:50:24.877Z,99.90
2023-04-12T04:52:53.714Z,99.90
2023-04-12T04:55:22.067Z,99.90
2023-04-12T04:57:50.042Z,99.90
2023-04-12T05:00:19.098Z,99.90
2023-04-12T05:02:53.629Z,99.90
2023-04-12T05:05:31.733Z,99.90
2023-04-12T05:08:05.785Z,99.90
2023-04-12T05:10:35.495Z,99.90
2023-04-12T05:13:03.450Z,99.90
2023-04-12T05:15:35.887Z,99.90
2023-04-12T05:18:04.319Z,99.90
2023-04-12T05:20:32.086Z,99.90
2023-04-12T05:22:59.498Z,99.90
2023-04-12T05:25:26.828Z,99.90
2023-04-12T05:28:02.812Z,99.90
2023-04-12T05:30:30.083Z,99.90
2023-04-12T05:32:58.055Z,99.90
2023-04-12T05:35:26.253Z,99.90
2023-04-12T05:37:58.765Z,99.90
2023-04-12T05:40:26.460Z,99.90
2023-04-12T05:42:54.918Z,99.90
2023-04-12T05:45:23.173Z,99.90
2023-04-12T05:47:50.493Z,99.90
2023-04-12T05:50:17.898Z,99.90
2023-04-12T05:52:45.343Z,99.90
2023-04-12T05:55:12.792Z,99.90
2023-04-12T05:57:43.010Z,99.90
2023-04-12T06:00:14.334Z,99.90
2023-04-12T06:02:45.744Z,99.90
2023-04-12T06:05:13.902Z,99.90
2023-04-12T06:07:48.609Z,99.90
2023-04-12T06:10:17.695Z,99.90
2023-04-12T06:12:49.733Z,99.90
2023-04-12T06:15:19.910Z,99.90
2023-04-12T06:17:51.603Z,99.90
2023-04-12T06:20:19.248Z,99.90
2023-04-12T06:22:46.554Z,99.90
2023-04-12T06:25:42.197Z,99.90
2023-04-12T06:28:10.729Z,99.90
2023-04-12T06:30:44.115Z,99.90
2023-04-12T06:33:12.561Z,99.90
2023-04-12T06:35:40.625Z,99.90
2023-04-12T06:38:37.336Z,99.90
2023-04-12T06:41:04.799Z,99.90
2023-04-12T06:43:32.251Z,99.90
2023-04-12T06:46:00.314Z,99.90
2023-04-12T06:48:27.568Z,99.90
2023-04-12T06:50:54.917Z,99.90
2023-04-12T06:53:23.069Z,99.90
2023-04-12T06:55:50.492Z,99.90
2023-04-12T06:58:18.844Z,99.90
2023-04-12T07:00:46.501Z,99.90
2023-04-12T07:03:13.820Z,99.90
2023-04-12T07:05:41.496Z,99.90
2023-04-12T07:08:15.000Z,99.90
2023-04-12T07:10:54.401Z,99.90
2023-04-12T07:13:23.016Z,99.90
2023-04-12T07:16:07.586Z,99.90
2023-04-12T07:18:34.908Z,99.90
2023-04-12T07:21:03.418Z,99.90
2023-04-12T07:23:31.620Z,99.90
2023-04-12T07:26:02.518Z,99.90
2023-04-12T07:28:29.736Z,99.90
2023-04-12T07:30:56.968Z,99.90
2023-04-12T07:33:27.972Z,99.90
2023-04-12T07:35:55.988Z,99.90
2023-04-12T07:38:23.462Z,99.90
2023-04-12T07:40:50.613Z,99.90
2023-04-12T07:43:17.988Z,99.90
2023-04-12T07:45:45.151Z,99.90
2023-04-12T07:48:12.803Z,99.90
2023-04-12T07:50:44.182Z,99.90
2023-04-12T07:53:27.269Z,99.90
2023-04-12T07:55:56.167Z,99.90
2023-04-12T07:58:24.882Z,99.90
2023-04-12T08:00:53.955Z,99.90
2023-04-12T08:03:31.693Z,99.90
2023-04-12T08:05:59.350Z,99.90
2023-04-12T08:08:29.129Z,98.40
2023-04-12T08:11:21.316Z,99.90
2023-04-12T08:13:48.556Z,99.40
2023-04-12T08:16:16.001Z,99.90
2023-04-12T08:18:43.380Z,99.30
2023-04-12T08:21:10.823Z,99.50
2023-04-12T08:23:38.300Z,99.60
2023-04-12T08:26:05.655Z,99.90
2023-04-12T08:28:33.671Z,99.20
2023-04-12T08:31:01.155Z,99.10
2023-04-12T08:33:28.863Z,98.80
2023-04-12T08:35:56.207Z,98.40
2023-04-12T08:38:37.237Z,97.60
2023-04-12T08:41:09.120Z,97.50
2023-04-12T08:43:38.192Z,96.70
2023-04-12T08:46:07.654Z,97.10
2023-04-12T08:48:35.697Z,96.90
2023-04-12T08:51:03.542Z,97.10
2023-04-12T08:53:31.859Z,97.00
2023-04-12T08:55:59.371Z,97.10
2023-04-12T08:58:27.157Z,96.70
2023-04-12T09:00:55.099Z,96.30
2023-04-12T09:03:22.557Z,96.30
2023-04-12T09:05:50.252Z,95.10
2023-04-12T09:08:18.924Z,95.60
2023-04-12T09:10:47.021Z,94.10
2023-04-12T09:13:14.948Z,96.00
2023-04-12T09:15:50.244Z,95.30
2023-04-12T09:18:18.811Z,94.90
2023-04-12T09:20:46.343Z,94.50
2023-04-12T09:23:20.987Z,94.00
2023-04-12T09:25:50.917Z,94.70
2023-04-12T09:28:26.350Z,94.50
2023-04-12T09:30:55.418Z,94.40
2023-04-12T09:33:44.287Z,94.30
2023-04-12T09:36:14.618Z,94.90
2023-04-12T09:39:00.389Z,94.80
2023-04-12T09:41:30.532Z,93.60
2023-04-12T09:43:59.912Z,93.90
2023-04-12T09:46:28.432Z,94.30
2023-04-12T09:48:59.382Z,93.20
2023-04-12T09:51:33.070Z,94.20
2023-04-12T09:54:04.288Z,94.20
2023-04-12T09:56:35.722Z,94.70
2023-04-12T09:59:08.001Z,93.60
2023-04-12T10:01:38.692Z,93.00
2023-04-12T10:04:09.983Z,93.80
2023-04-12T10:06:37.630Z,93.70
2023-04-12T10:09:05.627Z,93.20
2023-04-12T10:11:42.161Z,92.80
2023-04-12T10:14:11.423Z,92.50
2023-04-12T10:16:42.173Z,93.00
2023-04-12T10:19:10.464Z,92.70
2023-04-12T10:21:37.770Z,92.10
2023-04-12T10:24:07.207Z,91.80
2023-04-12T10:26:44.566Z,91.00
2023-04-12T10:29:32.069Z,91.20
2023-04-12T10:32:40.631Z,89.00
2023-04-12T10:39:12.183Z,87.90
2023-04-12T10:41:39.520Z,86.90
2023-04-12T10:44:26.035Z,88.80
2023-04-12T10:46:53.493Z,88.20
2023-04-12T10:49:21.094Z,88.00
2023-04-12T10:52:16.841Z,88.00
2023-04-12T10:54:44.606Z,87.20
2023-04-12T10:57:47.365Z,85.90
2023-04-12T11:00:15.878Z,90.00
2023-04-12T11:03:12.931Z,91.00
2023-04-12T11:06:19.994Z,89.40
2023-04-12T11:09:25.546Z,87.70
2023-04-12T11:12:03.960Z,88.60
2023-04-12T11:14:37.400Z,89.70
2023-04-12T11:17:13.908Z,87.00
2023-04-12T11:19:59.152Z,86.80
2023-04-12T11:22:33.490Z,86.90
2023-04-12T11:25:03.261Z,84.90
2023-04-12T11:27:32.447Z,85.40
2023-04-12T11:33:52.181Z,87.10
2023-04-12T11:36:19.937Z,85.70
2023-04-12T11:38:48.264Z,85.10
2023-04-12T11:41:17.132Z,86.70
2023-04-12T11:43:46.118Z,83.70
2023-04-12T11:46:14.242Z,84.80
2023-04-12T11:48:54.042Z,85.20
2023-04-12T11:51:25.173Z,85.20
2023-04-12T11:53:54.286Z,84.90
2023-04-12T11:56:22.410Z,84.90
2023-04-12T11:58:50.293Z,84.10
2023-04-12T12:01:37.982Z,85.00
2023-04-12T12:04:06.030Z,85.00
2023-04-12T12:06:33.989Z,84.50
2023-04-12T12:09:27.200Z,84.70
2023-04-12T12:11:56.026Z,85.30
2023-04-12T12:14:24.721Z,84.20
2023-04-12T12:16:55.256Z,84.90
2023-04-12T12:19:41.828Z,83.90
2023-04-12T12:22:13.062Z,85.40
2023-04-12T12:24:53.110Z,86.50
2023-04-12T12:27:23.767Z,83.80
2023-04-12T12:29:55.587Z,84.00
2023-04-12T12:33:45.862Z,82.70
2023-04-12T12:36:56.137Z,83.90
2023-04-12T12:39:32.933Z,83.70
2023-04-12T12:42:00.414Z,84.20
2023-04-12T12:44:27.604Z,84.50
2023-04-12T12:47:00.734Z,81.70
2023-04-12T12:49:37.366Z,82.90
2023-04-12T12:52:04.734Z,83.40
2023-04-12T12:54:39.464Z,84.40
2023-04-12T12:57:08.449Z,81.70
2023-04-12T12:59:35.755Z,81.10
2023-04-12T13:02:03.108Z,80.80
2023-04-12T13:04:30.619Z,80.10
2023-04-12T13:06:58.148Z,82.60
2023-04-12T13:09:25.544Z,82.00
2023-04-12T13:11:52.965Z,82.20
2023-04-12T13:14:20.561Z,80.60
2023-04-12T13:16:49.351Z,80.70
2023-04-12T13:19:17.897Z,80.10
2023-04-12T13:21:45.282Z,81.50
2023-04-12T13:24:12.532Z,81.40
2023-04-12T13:26:41.315Z,81.90
2023-04-12T13:29:08.467Z,80.80
2023-04-12T13:31:36.962Z,80.90
2023-04-12T13:34:04.448Z,80.40
2023-04-12T13:36:35.258Z,81.40
2023-04-12T13:39:02.696Z,81.20
2023-04-12T13:41:34.338Z,80.60
2023-04-12T13:44:03.298Z,79.60
2023-04-12T13:46:33.617Z,80.70
2023-04-12T13:49:01.026Z,80.40
2023-04-12T13:51:28.553Z,79.30
2023-04-12T13:54:46.829Z,81.60
2023-04-12T13:57:15.598Z,80.10
2023-04-12T13:59:42.792Z,79.80
2023-04-12T14:02:10.304Z,80.20
2023-04-12T14:04:49.822Z,79.50
2023-04-12T14:07:18.151Z,80.10
2023-04-12T14:09:45.879Z,81.00
2023-04-12T14:12:13.163Z,78.80
2023-04-12T14:14:42.926Z,81.40
2023-04-12T14:17:10.617Z,82.10
2023-04-12T14:19:37.887Z,80.00
2023-04-12T14:22:05.468Z,81.20
2023-04-12T14:24:32.645Z,82.10
2023-04-12T14:27:01.171Z,79.80
2023-04-12T14:29:30.680Z,79.80
2023-04-12T14:31:58.035Z,79.30
2023-04-12T14:34:25.297Z,77.80
2023-04-12T14:36:52.545Z,78.60
2023-04-12T14:39:20.553Z,80.50
2023-04-12T14:41:47.731Z,80.60
2023-04-12T14:44:14.991Z,79.40
2023-04-12T14:46:42.666Z,79.90
2023-04-12T14:49:09.876Z,78.80
2023-04-12T14:51:37.341Z,79.60
2023-04-12T14:54:04.931Z,79.60
2023-04-12T14:56:32.809Z,79.70
2023-04-12T14:59:04.686Z,80.60
2023-04-12T15:04:01.709Z,80.40
2023-04-12T15:06:30.625Z,77.80
2023-04-12T15:08:57.818Z,78.60
2023-04-12T15:11:27.028Z,78.00
2023-04-12T15:13:55.686Z,77.90
2023-04-12T15:16:23.433Z,78.40
2023-04-12T15:18:52.050Z,79.40
2023-04-12T15:21:19.518Z,79.10
2023-04-12T15:23:47.697Z,79.40
2023-04-12T15:26:16.001Z,79.30
2023-04-12T15:28:43.385Z,78.70
2023-04-12T15:31:23.534Z,77.70
2023-04-12T15:33:51.374Z,78.80
2023-04-12T15:36:19.129Z,80.40
2023-04-12T15:38:47.369Z,79.50
2023-04-12T15:41:14.944Z,79.80
2023-04-12T15:43:45.278Z,78.70
2023-04-12T15:46:14.656Z,79.20
2023-04-12T15:48:43.432Z,78.90
2023-04-12T15:51:10.903Z,78.60
2023-04-12T15:53:44.014Z,78.40
2023-04-12T15:56:14.437Z,79.50
2023-04-12T15:58:41.758Z,80.00
2023-04-12T16:01:09.021Z,79.30
2023-04-12T16:03:37.393Z,79.00
2023-04-12T16:06:05.874Z,79.00
2023-04-12T16:08:35.440Z,79.60
2023-04-12T16:11:03.143Z,80.20
2023-04-12T16:13:31.882Z,81.20
2023-04-12T16:15:59.239Z,82.70
2023-04-12T16:18:26.581Z,84.30
2023-04-12T16:20:57.705Z,83.00
2023-04-12T16:23:25.061Z,80.90
2023-04-12T16:25:53.419Z,82.60
2023-04-12T16:28:22.876Z,82.40
2023-04-12T16:31:16.133Z,80.30
2023-04-12T16:33:45.374Z,80.20
2023-04-12T16:36:12.945Z,82.30
2023-04-12T16:38:41.834Z,85.70
2023-04-12T16:41:09.405Z,87.60
2023-04-12T16:46:18.032Z,90.00
2023-04-12T16:48:45.515Z,89.80
2023-04-12T16:51:14.612Z,90.00
2023-04-12T16:53:42.052Z,88.60
2023-04-12T16:56:09.609Z,87.50
2023-04-12T16:58:37.832Z,85.10
2023-04-12T17:01:06.555Z,85.80
2023-04-12T17:03:34.777Z,84.00
2023-04-12T17:06:03.053Z,85.80
2023-04-12T17:08:30.360Z,87.00
2023-04-12T17:10:59.429Z,87.60
2023-04-12T17:13:30.375Z,88.40
2023-04-12T17:15:59.571Z,89.20
2023-04-12T17:18:28.614Z,90.00
2023-04-12T17:20:56.714Z,90.50
2023-04-12T17:23:28.291Z,90.20
2023-04-12T17:25:58.048Z,90.20
2023-04-12T17:28:27.936Z,90.00
2023-04-12T17:30:59.214Z,89.30
2023-04-12T17:33:28.483Z,89.50
2023-04-12T17:36:00.181Z,89.40
2023-04-12T17:38:32.689Z,90.40
2023-04-12T17:41:01.563Z,90.60
2023-04-12T17:43:31.414Z,90.60
2023-04-12T17:46:03.811Z,90.70
2023-04-12T17:48:36.677Z,90.70
2023-04-12T17:51:11.670Z,90.60
2023-04-12T17:53:42.021Z,90.70
2023-04-12T17:56:15.837Z,90.70
2023-04-12T17:58:45.378Z,90.80
2023-04-12T18:01:13.345Z,91.00
2023-04-12T18:03:46.893Z,91.10
2023-04-12T18:06:24.739Z,91.20
2023-04-12T18:08:54.702Z,91.00
2023-04-12T18:11:22.745Z,90.90
2023-04-12T18:13:50.890Z,91.30
2023-04-12T18:16:20.788Z,91.40
2023-04-12T18:18:48.895Z,91.60
2023-04-12T18:21:21.529Z,91.80
2023-04-12T18:23:49.949Z,92.00
2023-04-12T18:26:19.042Z,92.00
2023-04-12T18:28:47.273Z,91.90
2023-04-12T18:31:16.732Z,91.90
2023-04-12T18:33:44.737Z,92.30
2023-04-12T18:36:24.487Z,92.20
2023-04-12T18:38:52.417Z,92.60
2023-04-12T18:41:37.406Z,92.80
2023-04-12T18:44:21.078Z,92.90
2023-04-12T18:46:50.178Z,92.80
2023-04-12T18:49:20.295Z,92.80
2023-04-12T18:51:49.856Z,92.50
2023-04-12T18:54:18.368Z,92.70
2023-04-12T18:56:53.928Z,92.80
2023-04-12T18:59:22.725Z,93.00
2023-04-12T19:01:55.213Z,93.00
2023-04-12T19:04:25.754Z,93.30
2023-04-12T19:06:54.206Z,93.50
2023-04-12T19:09:24.211Z,93.20
2023-04-12T19:11:55.694Z,93.70
2023-04-12T19:14:24.259Z,93.60
2023-04-12T19:16:53.325Z,93.80
2023-04-12T19:19:21.896Z,93.60
2023-04-12T19:21:49.988Z,94.60
2023-04-12T19:24:42.089Z,94.30
2023-04-12T19:27:11.793Z,94.30
2023-04-12T19:29:42.311Z,94.50
2023-04-12T19:32:14.196Z,94.80
2023-04-12T19:34:43.015Z,94.70
2023-04-12T19:37:12.410Z,95.60
2023-04-12T19:39:41.273Z,96.00
2023-04-12T19:42:10.134Z,95.40
2023-04-12T19:44:42.042Z,95.90
2023-04-12T19:47:35.164Z,95.80
2023-04-12T19:50:05.571Z,96.90
2023-04-12T19:52:35.066Z,97.10
2023-04-12T19:55:03.008Z,97.10
2023-04-12T19:57:31.343Z,96.70
2023-04-12T19:59:59.780Z,96.60
2023-04-12T20:02:47.704Z,97.00
2023-04-12T20:05:22.169Z,97.60
2023-04-12T20:07:53.239Z,97.30
2023-04-12T20:10:22.517Z,98.50
2023-04-12T20:12:50.782Z,97.80
2023-04-12T20:15:27.318Z,97.60
2023-04-12T20:17:55.028Z,98.30
2023-04-12T20:20:23.519Z,98.30
2023-04-12T20:22:55.290Z,97.90
2023-04-12T20:25:23.836Z,97.70
2023-04-12T20:27:54.433Z,97.80
2023-04-12T20:30:23.195Z,98.50
2023-04-12T20:32:55.101Z,98.10
2023-04-12T20:35:23.601Z,98.10
2023-04-12T20:37:53.198Z,98.40
2023-04-12T20:40:30.308Z,98.30
2023-04-12T20:42:58.161Z,98.10
2023-04-12T20:45:26.711Z,98.90
2023-04-12T20:47:54.456Z,99.30
2023-04-12T20:50:26.067Z,99.60
2023-04-12T20:52:53.760Z,99.80
2023-04-12T20:55:26.092Z,99.70
2023-04-12T20:57:55.971Z,99.30
2023-04-12T21:00:23.896Z,99.40
2023-04-12T21:02:51.510Z,99.60
2023-04-12T21:05:28.890Z,99.70
2023-04-12T21:07:58.469Z,99.50
2023-04-12T21:10:27.072Z,99.60
2023-04-12T21:12:54.909Z,99.30
2023-04-12T21:15:22.269Z,99.20
2023-04-12T21:18:04.550Z,99.90
2023-04-12T21:20:51.883Z,99.90
2023-04-12T21:23:19.194Z,99.90
2023-04-12T21:25:48.662Z,99.90
2023-04-12T21:28:24.927Z,99.90
2023-04-12T21:30:57.704Z,99.90
2023-04-12T21:33:25.193Z,99.90
2023-04-12T21:35:55.913Z,99.90
2023-04-12T21:38:24.091Z,99.90
2023-04-12T21:40:51.707Z,99.90
2023-04-12T21:43:25.034Z,99.90
2023-04-12T21:45:52.580Z,99.90
2023-04-12T21:48:19.887Z,99.90
2023-04-12T21:50:48.362Z,99.90
2023-04-12T21:53:16.640Z,99.90
2023-04-12T21:55:47.049Z,99.90
2023-04-12T21:58:15.170Z,99.90
2023-04-12T22:00:42.861Z,99.90
2023-04-12T22:03:10.356Z,99.90
2023-04-12T22:05:39.909Z,99.90
2023-04-12T22:08:07.836Z,99.90
2023-04-12T22:10:35.520Z,99.90
2023-04-12T22:13:03.297Z,99.90
2023-04-12T22:15:33.785Z,99.90
2023-04-12T22:18:01.280Z,99.90
2023-04-12T22:20:33.604Z,99.90
2023-04-12T22:23:00.850Z,99.90
2023-04-12T22:25:29.763Z,99.90
2023-04-12T22:27:58.350Z,99.90
2023-04-12T22:30:26.230Z,99.90
2023-04-12T22:32:54.025Z,99.90
2023-04-12T22:35:22.808Z,99.90
2023-04-12T22:37:50.992Z,99.90
2023-04-12T22:40:18.372Z,99.90
2023-04-12T22:43:18.281Z,99.90
2023-04-12T22:45:54.767Z,99.90
2023-04-12T22:48:25.068Z,99.90
2023-04-12T22:50:54.590Z,99.90
2023-04-12T22:53:22.493Z,99.90
2023-04-12T22:55:49.708Z,99.90
2023-04-12T22:58:17.280Z,99.90
2023-04-12T23:00:44.768Z,99.90
2023-04-12T23:03:12.286Z,99.90
2023-04-12T23:05:44.996Z,99.90
2023-04-12T23:08:15.857Z,99.90
2023-04-12T23:10:52.512Z,99.90
2023-04-12T23:13:19.979Z,99.90
2023-04-12T23:15:47.175Z,99.90
2023-04-12T23:18:14.476Z,99.90
2023-04-12T23:20:58.776Z,99.90
2023-04-12T23:23:27.079Z,99.90
2023-04-12T23:25:55.583Z,99.90
2023-04-12T23:28:26.683Z,99.90
2023-04-12T23:30:54.368Z,99.90
2023-04-12T23:33:22.153Z,99.90
2023-04-12T23:35:53.031Z,99.90
2023-04-12T23:38:24.593Z,99.90
2023-04-12T23:40:55.181Z,99.90
2023-04-12T23:43:23.376Z,99.90
2023-04-12T23:45:52.633Z,99.90
2023-04-12T23:48:19.962Z,99.90
2023-04-12T23:50:48.462Z,99.90
2023-04-12T23:53:17.977Z,99.90
2023-04-12T23:55:49.102Z,99.90
2023-04-12T23:58:17.050Z,99.90
